アティラウ の空港の天気 - METARとTAF

Atyrau Airport ( UATG / GUW ) - カザフスタン Atyrau
飛行場実況気象(Metar)
観測時間06/18 00:30 ORAT (06/17 19:30 UTC)
風向・風速北東 4m/s
視程10km以上
天気現象
なし
気温22℃
湿度33%
気圧1010hPa
METARUATG 171930Z 04004MPS CAVOK 22/05 Q1010 R32/CLRD70 NOSIG RMK QFE759/1012
過去の天気等 Google飛行場航空写真 Wunderground天気予報

過去48時間のMETAR

飛行場予報(TAF)
発表時間: 6/17 22:01 ORAT (6/17 17:01 UTC)
予報対象時間: 17日23時 ORAT ~ 18日23時 ORAT
風向・風速不定 3m/s
視程10km以上
全天の4割程度の雲 雲底高度 1010m
TAF UATG 171701Z 1718/1818 VRB03MPS 9999 SCT033 TX33/1811Z TN19/1801Z